Time;durP1;ratioP1;P1;durP2;ratioP2;P2;SDS_P1;SDS_P2;PMS_P1;PMS_P2;Temp;Humidity;BMP_temperature;BMP_pressure;BME280_temperature;BME280_humidity;BME280_pressure;Samples;Min_cycle;Max_cycle;Signal;HPM_P1;HPM_P2
2024/01/14 00:02:22;;;;;;;105.90;48.50;;;;;;;0.96;100.00;101629.16;5032033;28;20108;-78
2024/01/14 00:04:47;;;;;;;108.13;51.33;;;;;;;1.01;100.00;101638.44;5032159;28;20029;-77
2024/01/14 00:07:13;;;;;;;110.65;50.40;;;;;;;0.87;100.00;101619.94;5031870;28;20029;-78
2024/01/14 00:09:38;;;;;;;103.68;50.15;;;;;;;1.01;100.00;101635.91;5032005;28;20026;-77
2024/01/14 00:12:05;;;;;;;110.75;49.28;;;;;;;1.02;100.00;101636.75;5031989;28;20528;-77
2024/01/14 00:14:30;;;;;;;123.00;54.63;;;;;;;0.89;100.00;101619.94;5014115;28;20086;-77
2024/01/14 00:16:56;;;;;;;120.53;53.58;;;;;;;0.91;100.00;101623.31;5031584;28;20026;-77
2024/01/14 00:19:21;;;;;;;105.07;49.67;;;;;;;0.83;100.00;101601.34;5031725;28;20072;-77
2024/01/14 00:21:46;;;;;;;106.22;48.65;;;;;;;1.00;100.00;101631.69;5031896;28;20042;-78
2024/01/14 00:24:11;;;;;;;109.07;50.42;;;;;;;0.98;100.00;101615.56;5034406;28;20052;-78
2024/01/14 00:26:37;;;;;;;109.72;49.55;;;;;;;0.97;100.00;101621.50;5035750;28;20072;-77
2024/01/14 00:29:02;;;;;;;113.70;51.45;;;;;;;0.79;100.00;101592.06;5035303;28;20381;-77
2024/01/14 00:31:28;;;;;;;114.72;50.53;;;;;;;0.80;100.00;101591.22;5035373;28;20036;-77
2024/01/14 00:33:53;;;;;;;105.72;49.58;;;;;;;0.95;100.00;101605.44;5035304;28;20113;-77
2024/01/14 00:36:19;;;;;;;118.10;52.80;;;;;;;0.82;100.00;101584.41;5035481;28;20359;-77
2024/01/14 00:38:45;;;;;;;112.07;49.25;;;;;;;0.73;100.00;101581.09;5035362;28;20029;-78
2024/01/14 00:41:11;;;;;;;111.28;47.47;;;;;;;0.92;100.00;101608.03;5035117;28;20083;-78
2024/01/14 00:43:36;;;;;;;108.43;47.25;;;;;;;0.74;100.00;101578.53;5035083;28;20025;-78
2024/01/14 00:46:02;;;;;;;107.00;48.67;;;;;;;0.77;100.00;101578.50;5035017;28;20489;-77
2024/01/14 00:48:28;;;;;;;115.95;51.15;;;;;;;0.74;100.00;101565.00;5035142;28;20084;-77
2024/01/14 00:50:53;;;;;;;110.93;48.20;;;;;;;0.93;100.00;101607.16;5035075;28;20135;-77
2024/01/14 00:53:19;;;;;;;102.13;48.33;;;;;;;0.98;100.00;101612.19;5034978;28;20025;-77
2024/01/14 00:55:44;;;;;;;108.30;48.88;;;;;;;0.94;100.00;101585.97;5034621;28;20030;-77
2024/01/14 00:58:10;;;;;;;109.45;48.53;;;;;;;1.01;100.00;101592.66;5035016;28;20030;-78
2024/01/14 01:00:35;;;;;;;110.95;49.45;;;;;;;0.85;100.00;101571.63;5034961;28;20018;-78
2024/01/14 01:03:00;;;;;;;99.93;45.92;;;;;;;0.94;100.00;101582.56;5034667;28;20029;-77
2024/01/14 01:05:26;;;;;;;98.97;48.53;;;;;;;0.96;100.00;101580.84;5034680;28;20038;-77
2024/01/14 01:07:51;;;;;;;99.30;46.60;;;;;;;1.01;100.00;101586.75;5033048;28;20041;-77
2024/01/14 01:10:16;;;;;;;99.18;46.35;;;;;;;0.94;100.00;101575.78;5034681;28;20031;-78
2024/01/14 01:12:42;;;;;;;103.80;48.53;;;;;;;0.93;100.00;101563.94;5034689;28;20022;-77
2024/01/14 01:15:09;;;;;;;110.55;51.22;;;;;;;0.83;100.00;101557.28;5034527;28;20017;-77
2024/01/14 01:17:36;;;;;;;110.40;49.50;;;;;;;0.96;100.00;101583.41;5034494;28;20022;-78
2024/01/14 01:20:02;;;;;;;106.20;45.67;;;;;;;0.97;100.00;101583.38;5034414;28;20057;-77
2024/01/14 01:22:28;;;;;;;107.55;48.45;;;;;;;0.80;100.00;101553.06;5034207;28;20477;-78
2024/01/14 01:24:53;;;;;;;106.07;49.30;;;;;;;0.91;100.00;101575.00;5034217;28;20033;-77
2024/01/14 01:27:18;;;;;;;109.82;49.97;;;;;;;0.86;100.00;101564.84;5034263;28;20091;-77
2024/01/14 01:29:44;;;;;;;112.47;49.40;;;;;;;0.88;100.00;101560.59;5034260;28;20393;-77
2024/01/14 01:32:10;;;;;;;106.93;47.55;;;;;;;0.76;100.00;101541.22;5034393;28;20040;-78
2024/01/14 01:34:36;;;;;;;103.72;46.75;;;;;;;0.79;100.00;101533.59;5033789;28;20075;-78
2024/01/14 01:37:02;;;;;;;103.90;47.25;;;;;;;0.91;100.00;101555.50;5034252;28;20026;-77
2024/01/14 01:39:28;;;;;;;99.80;46.58;;;;;;;0.81;100.00;101536.13;5033945;28;20428;-77
2024/01/14 01:41:53;;;;;;;102.93;46.05;;;;;;;0.83;100.00;101526.75;5034006;28;20029;-77
2024/01/14 01:44:19;;;;;;;103.15;46.28;;;;;;;0.92;100.00;101534.28;5034429;28;20032;-77
2024/01/14 01:46:45;;;;;;;97.63;46.30;;;;;;;0.93;100.00;101533.41;5033971;28;20059;-77
2024/01/14 01:49:10;;;;;;;101.10;44.47;;;;;;;0.94;100.00;101536.81;5033941;28;20040;-78
2024/01/14 01:51:38;;;;;;;100.60;48.35;;;;;;;0.93;100.00;101542.75;5033927;28;20030;-77
2024/01/14 01:54:03;;;;;;;94.03;45.38;;;;;;;0.92;100.00;101534.28;5033651;28;20029;-77
2024/01/14 01:56:31;;;;;;;93.20;42.40;;;;;;;0.92;100.00;101544.47;5033768;28;20120;-77
2024/01/14 01:58:57;;;;;;;91.03;43.03;;;;;;;0.95;100.00;101546.13;5033974;28;20052;-78
2024/01/14 02:01:22;;;;;;;99.93;43.47;;;;;;;0.94;100.00;101537.66;5034363;28;20474;-78
2024/01/14 02:03:51;;;;;;;90.18;42.60;;;;;;;0.93;100.00;101533.41;5033885;28;20045;-79
2024/01/14 02:06:18;;;;;;;93.25;42.70;;;;;;;0.88;100.00;101522.44;5033721;28;20075;-78
2024/01/14 02:08:43;;;;;;;87.68;43.15;;;;;;;0.76;100.00;101495.47;5033659;28;20017;-79
2024/01/14 02:11:09;;;;;;;90.45;44.20;;;;;;;0.91;100.00;101512.25;5033652;28;20063;-78
2024/01/14 02:13:34;;;;;;;97.10;46.53;;;;;;;0.82;100.00;101500.50;5015912;28;20468;-78
2024/01/14 02:16:00;;;;;;;96.93;44.25;;;;;;;1.00;100.00;101524.03;5033410;28;20087;-77
2024/01/14 02:18:25;;;;;;;96.18;44.50;;;;;;;0.99;100.00;101524.91;5031754;28;20040;-77
2024/01/14 02:20:50;;;;;;;95.72;44.17;;;;;;;0.96;100.00;101524.91;5033324;28;20037;-77
2024/01/14 02:23:20;;;;;;;95.65;46.10;;;;;;;0.83;100.00;101503.88;5033355;28;20061;-77
2024/01/14 02:25:46;;;;;;;94.30;42.30;;;;;;;0.87;100.00;101513.13;5033235;28;20366;-78
2024/01/14 02:28:12;;;;;;;93.05;45.08;;;;;;;0.96;100.00;101515.56;5033042;28;20029;-77
2024/01/14 02:30:39;;;;;;;91.88;44.28;;;;;;;0.73;100.00;101487.06;5033465;28;20026;-78
2024/01/14 02:33:04;;;;;;;98.55;45.40;;;;;;;0.93;100.00;101522.41;5014964;28;20041;-77
2024/01/14 02:35:29;;;;;;;96.70;44.67;;;;;;;0.91;100.00;101512.25;5032904;28;20469;-78
2024/01/14 02:37:55;;;;;;;96.90;46.78;;;;;;;0.92;100.00;101508.00;5031800;28;20088;-78
2024/01/14 02:40:20;;;;;;;94.18;43.75;;;;;;;0.88;100.00;101496.19;5033255;28;20026;-77
2024/01/14 02:42:46;;;;;;;109.75;46.67;;;;;;;0.93;100.00;101502.91;5033060;28;20034;-77
2024/01/14 02:45:11;;;;;;;101.43;47.47;;;;;;;0.94;100.00;101499.50;5032769;28;20496;-78
2024/01/14 02:47:37;;;;;;;93.70;44.15;;;;;;;0.84;100.00;101468.25;5032516;28;20021;-77
2024/01/14 02:50:02;;;;;;;98.70;45.55;;;;;;;0.93;100.00;101482.56;5032774;28;20104;-77
2024/01/14 02:52:28;;;;;;;97.72;44.92;;;;;;;0.99;100.00;101485.03;5032934;28;20079;-78
2024/01/14 02:54:53;;;;;;;111.20;51.35;;;;;;;0.90;100.00;101466.53;5032915;28;20025;-77
2024/01/14 02:57:18;;;;;;;109.22;48.80;;;;;;;0.90;100.00;101466.53;5032924;28;20032;-77
2024/01/14 02:59:44;;;;;;;104.75;49.63;;;;;;;0.91;100.00;101461.41;5032566;28;20124;-77
2024/01/14 03:02:09;;;;;;;101.35;48.92;;;;;;;0.85;100.00;101448.75;5032939;28;20027;-78
2024/01/14 03:04:34;;;;;;;103.88;46.60;;;;;;;0.87;100.00;101457.19;5032328;28;20519;-78
2024/01/14 03:06:59;;;;;;;103.85;48.90;;;;;;;0.99;100.00;101486.75;5032531;28;20097;-78
2024/01/14 03:09:25;;;;;;;100.53;45.88;;;;;;;0.99;100.00;101467.25;5032776;28;20330;-78
2024/01/14 03:11:50;;;;;;;114.65;49.63;;;;;;;0.82;100.00;101442.03;5032835;28;20033;-77
2024/01/14 03:14:15;;;;;;;99.65;47.20;;;;;;;0.76;100.00;101429.38;5032435;28;20043;-77
2024/01/14 03:16:41;;;;;;;90.93;44.20;;;;;;;0.96;100.00;101466.41;5032550;28;20129;-78
2024/01/14 03:19:06;;;;;;;95.63;44.45;;;;;;;0.97;100.00;101461.31;5032269;28;20033;-77
2024/01/14 03:21:32;;;;;;;92.82;43.00;;;;;;;0.87;100.00;101441.94;5032417;28;20049;-77
2024/01/14 03:23:57;;;;;;;90.95;42.95;;;;;;;0.83;100.00;101443.69;5032353;28;20056;-79
2024/01/14 03:26:23;;;;;;;92.57;42.40;;;;;;;0.94;100.00;101460.53;5032273;28;20056;-77
2024/01/14 03:28:48;;;;;;;92.28;45.50;;;;;;;0.73;100.00;101431.97;5032560;28;20029;-78
2024/01/14 03:31:15;;;;;;;87.72;43.28;;;;;;;0.91;100.00;101458.88;5032109;28;20025;-77
2024/01/14 03:33:42;;;;;;;88.82;43.08;;;;;;;0.91;100.00;101458.88;5032435;28;20037;-78
2024/01/14 03:36:08;;;;;;;92.78;46.20;;;;;;;0.60;100.00;101416.91;5021953;28;20073;-78
2024/01/14 03:38:33;;;;;;;88.97;42.92;;;;;;;0.92;100.00;101452.91;5012614;28;20029;-78
2024/01/14 03:40:59;;;;;;;92.78;45.78;;;;;;;0.88;100.00;101447.88;5012603;28;20022;-78
2024/01/14 03:43:24;;;;;;;86.15;41.78;;;;;;;0.96;100.00;101451.16;5012581;28;20390;-78
2024/01/14 03:45:49;;;;;;;83.95;43.42;;;;;;;0.69;100.00;101404.91;5012132;28;20080;-77
2024/01/14 03:48:15;;;;;;;86.78;44.88;;;;;;;0.92;100.00;101436.81;5012425;28;20470;-78
2024/01/14 03:50:40;;;;;;;81.82;41.63;;;;;;;0.92;100.00;101432.56;5012238;28;20034;-78
2024/01/14 03:53:07;;;;;;;78.95;40.65;;;;;;;0.76;100.00;101403.97;5012377;28;20065;-78
2024/01/14 03:55:32;;;;;;;84.45;42.03;;;;;;;0.87;100.00;101419.06;5012415;28;20022;-77
2024/01/14 03:57:58;;;;;;;78.00;40.88;;;;;;;0.87;100.00;101411.44;5014901;28;20036;-78
2024/01/14 04:00:23;;;;;;;78.63;40.25;;;;;;;0.90;100.00;101421.59;5016120;28;20029;-77
2024/01/14 04:02:49;;;;;;;79.25;41.22;;;;;;;0.88;100.00;101419.91;5016146;28;20108;-78
2024/01/14 04:05:14;;;;;;;81.05;41.03;;;;;;;0.81;100.00;101414.09;5016090;28;20026;-78
2024/01/14 04:07:39;;;;;;;75.63;39.35;;;;;;;0.84;100.00;101416.56;5016263;28;20384;-79
2024/01/14 04:10:05;;;;;;;81.13;39.45;;;;;;;0.89;100.00;101427.53;5016221;28;20030;-78
2024/01/14 04:12:30;;;;;;;82.03;42.53;;;;;;;0.87;100.00;101424.16;5016062;28;20026;-78
2024/01/14 04:14:55;;;;;;;75.13;39.72;;;;;;;0.87;100.00;101419.06;5016177;28;20092;-79
2024/01/14 04:17:21;;;;;;;80.00;38.78;;;;;;;0.72;100.00;101397.25;5016009;28;20038;-77
2024/01/14 04:19:46;;;;;;;76.80;40.30;;;;;;;0.81;100.00;101402.22;5015880;28;20030;-78
2024/01/14 04:22:11;;;;;;;81.40;40.83;;;;;;;0.83;100.00;101410.66;5015856;28;20054;-79
2024/01/14 04:24:37;;;;;;;74.35;38.58;;;;;;;0.88;100.00;101412.28;5016089;28;20042;-79
2024/01/14 04:27:02;;;;;;;80.50;39.30;;;;;;;0.87;100.00;101408.91;5015613;28;20108;-79
2024/01/14 04:29:28;;;;;;;77.70;39.10;;;;;;;0.85;100.00;101411.47;4997727;28;20053;-79
2024/01/14 04:31:53;;;;;;;76.13;38.45;;;;;;;0.83;100.00;101412.34;5015640;28;20032;-77
2024/01/14 04:34:18;;;;;;;74.10;38.30;;;;;;;0.77;100.00;101404.78;5015678;28;20021;-79
2024/01/14 04:36:44;;;;;;;67.25;37.00;;;;;;;0.79;100.00;101408.19;5015659;28;20425;-78
2024/01/14 04:39:10;;;;;;;72.18;38.80;;;;;;;0.78;100.00;101407.31;5015725;28;20040;-77
2024/01/14 04:41:35;;;;;;;69.85;36.28;;;;;;;0.80;100.00;101404.78;5015152;28;20466;-78
2024/01/14 04:44:01;;;;;;;70.00;38.13;;;;;;;0.79;100.00;101403.09;5015485;28;20037;-78
2024/01/14 04:46:26;;;;;;;71.22;35.70;;;;;;;0.76;100.00;101387.88;5015467;28;20390;-76
2024/01/14 04:48:51;;;;;;;68.75;36.38;;;;;;;0.65;100.00;101375.31;5015418;28;20026;-78
2024/01/14 04:51:18;;;;;;;62.65;34.90;;;;;;;0.76;100.00;101395.50;5015382;28;20367;-78
2024/01/14 04:53:44;;;;;;;68.75;36.90;;;;;;;0.68;100.00;101379.50;5015294;28;20136;-78
2024/01/14 04:56:09;;;;;;;65.10;34.80;;;;;;;0.71;100.00;101392.19;5015159;28;20104;-78
2024/01/14 04:58:35;;;;;;;65.28;32.70;;;;;;;0.52;100.00;101353.47;5015304;28;20022;-77
2024/01/14 05:01:00;;;;;;;62.95;33.92;;;;;;;0.70;100.00;101387.97;5015132;28;20030;-77
2024/01/14 05:03:26;;;;;;;56.33;31.05;;;;;;;0.70;100.00;101386.28;5014989;28;20095;-77
2024/01/14 05:05:51;;;;;;;53.50;30.85;;;;;;;0.68;100.00;101380.34;5014835;28;20026;-77
2024/01/14 05:08:17;;;;;;;51.38;28.52;;;;;;;0.53;100.00;101352.59;5014467;28;20030;-78
2024/01/14 05:10:42;;;;;;;54.88;28.40;;;;;;;0.53;100.00;101348.34;5014619;28;20378;-77
2024/01/14 05:13:07;;;;;;;49.80;28.40;;;;;;;0.47;100.00;101342.50;5014913;28;20049;-77
2024/01/14 05:15:33;;;;;;;52.55;27.20;;;;;;;0.61;100.00;101363.50;5014801;28;20489;-78
2024/01/14 05:17:59;;;;;;;48.92;26.20;;;;;;;0.63;100.00;101371.13;4996559;28;20038;-79
2024/01/14 05:20:24;;;;;;;48.42;26.48;;;;;;;0.60;100.00;101373.69;5014493;28;20017;-76
2024/01/14 05:22:49;;;;;;;47.25;26.25;;;;;;;0.57;100.00;101361.84;5014844;28;20466;-78
2024/01/14 05:25:15;;;;;;;51.22;28.77;;;;;;;0.55;100.00;101361.03;5014760;28;20018;-77
2024/01/14 05:27:40;;;;;;;46.50;25.83;;;;;;;0.53;100.00;101363.59;5014418;28;20029;-77
2024/01/14 05:30:06;;;;;;;51.25;27.88;;;;;;;0.53;100.00;101360.22;5014432;28;20079;-77
2024/01/14 05:32:31;;;;;;;49.30;27.92;;;;;;;0.51;100.00;101356.88;5014531;28;20414;-76
2024/01/14 05:34:57;;;;;;;51.25;26.88;;;;;;;0.53;100.00;101357.69;5014390;28;20029;-77
2024/01/14 05:37:22;;;;;;;51.20;26.33;;;;;;;0.56;100.00;101355.94;4996183;28;20111;-76
2024/01/14 05:39:47;;;;;;;48.85;26.98;;;;;;;0.58;100.00;101349.13;5013952;28;20053;-76
2024/01/14 05:42:13;;;;;;;51.20;27.60;;;;;;;0.57;100.00;101341.53;5014416;28;20418;-77
2024/01/14 05:44:38;;;;;;;53.47;29.42;;;;;;;0.48;100.00;101328.94;5014420;28;20069;-77
2024/01/14 05:47:03;;;;;;;55.22;28.15;;;;;;;0.51;100.00;101336.53;5014170;28;20040;-77
2024/01/14 05:49:29;;;;;;;54.30;28.15;;;;;;;0.40;100.00;101316.38;5014212;28;20068;-77
2024/01/14 05:51:54;;;;;;;54.20;28.40;;;;;;;0.54;100.00;101339.88;5013952;28;20036;-77
2024/01/14 05:54:20;;;;;;;52.78;28.85;;;;;;;0.49;100.00;101323.88;5014151;28;20034;-75
2024/01/14 05:56:45;;;;;;;52.00;29.33;;;;;;;0.58;100.00;101331.34;5014164;28;20022;-77
2024/01/14 05:59:10;;;;;;;50.08;27.48;;;;;;;0.54;100.00;101326.31;5014155;28;20022;-77
2024/01/14 06:01:36;;;;;;;52.90;28.15;;;;;;;0.53;100.00;101320.41;5014045;28;20057;-77
2024/01/14 06:04:02;;;;;;;48.38;28.65;;;;;;;0.48;100.00;101311.16;5014034;28;20022;-76
2024/01/14 06:06:27;;;;;;;52.13;28.27;;;;;;;0.61;100.00;101324.56;5013477;28;20032;-76
2024/01/14 06:08:52;;;;;;;48.75;26.88;;;;;;;0.46;100.00;101297.63;5014063;28;20034;-77
2024/01/14 06:11:18;;;;;;;55.22;29.10;;;;;;;0.53;100.00;101315.31;5014219;28;20045;-77
2024/01/14 06:13:43;;;;;;;54.70;29.38;;;;;;;0.58;100.00;101315.25;5013810;28;20022;-77
2024/01/14 06:16:09;;;;;;;53.60;30.15;;;;;;;0.44;100.00;101295.13;5013748;28;20053;-77
2024/01/14 06:18:35;;;;;;;57.45;30.90;;;;;;;0.59;100.00;101311.88;5013696;28;20101;-77
2024/01/14 06:21:01;;;;;;;55.05;29.77;;;;;;;0.60;100.00;101305.09;5013227;28;20046;-77
2024/01/14 06:23:28;;;;;;;52.88;28.98;;;;;;;0.45;100.00;101284.09;5013821;28;20032;-77
2024/01/14 06:25:54;;;;;;;61.75;31.13;;;;;;;0.61;100.00;101301.69;5013874;28;20033;-78
2024/01/14 06:28:20;;;;;;;54.33;29.85;;;;;;;0.59;100.00;101301.72;5013666;28;20022;-78
2024/01/14 06:30:45;;;;;;;56.35;31.17;;;;;;;0.45;100.00;101281.56;5013650;28;20497;-78
2024/01/14 06:33:12;;;;;;;57.97;30.70;;;;;;;0.50;100.00;101294.22;5013581;28;20116;-78
2024/01/14 06:35:37;;;;;;;56.25;29.35;;;;;;;0.51;100.00;101300.97;5013474;28;20037;-78
2024/01/14 06:38:03;;;;;;;56.30;30.13;;;;;;;0.53;100.00;101297.53;5013210;28;20025;-78
2024/01/14 06:40:28;;;;;;;55.97;28.88;;;;;;;0.51;100.00;101289.09;5012187;28;20486;-78
2024/01/14 06:42:53;;;;;;;53.13;29.05;;;;;;;0.58;100.00;101300.84;5013561;28;20386;-78
2024/01/14 06:45:19;;;;;;;56.05;29.55;;;;;;;0.52;100.00;101280.63;5013458;28;20385;-78
2024/01/14 06:47:44;;;;;;;50.75;27.85;;;;;;;0.59;100.00;101289.00;5013295;28;20030;-76
2024/01/14 06:50:10;;;;;;;58.15;29.58;;;;;;;0.44;100.00;101257.00;5013305;28;20033;-78
2024/01/14 06:52:36;;;;;;;53.70;29.33;;;;;;;0.60;100.00;101272.06;5013050;28;20026;-77
2024/01/14 06:55:04;;;;;;;54.80;31.30;;;;;;;0.54;100.00;101248.41;5013023;28;20105;-78
2024/01/14 06:57:31;;;;;;;56.78;29.05;;;;;;;0.60;100.00;101266.97;5013218;28;20026;-78
2024/01/14 06:59:56;;;;;;;55.30;29.52;;;;;;;0.52;100.00;101251.84;5013398;28;20157;-77
2024/01/14 07:02:22;;;;;;;57.00;29.77;;;;;;;0.58;100.00;101255.09;5013106;28;20355;-78
2024/01/14 07:04:47;;;;;;;58.20;30.02;;;;;;;0.61;100.00;101266.94;5013023;28;20036;-77
2024/01/14 07:07:12;;;;;;;54.75;29.48;;;;;;;0.58;100.00;101262.72;5012713;28;20161;-77
2024/01/14 07:09:37;;;;;;;52.10;28.25;;;;;;;0.57;100.00;101261.03;5012550;28;20053;-77
2024/01/14 07:12:03;;;;;;;53.53;29.60;;;;;;;0.58;100.00;101256.81;5012851;28;20242;-77
2024/01/14 07:14:28;;;;;;;52.83;28.65;;;;;;;0.57;100.00;101263.59;5012817;28;20026;-77
2024/01/14 07:16:54;;;;;;;58.95;30.80;;;;;;;0.55;100.00;101255.16;5012643;28;20034;-78
2024/01/14 07:19:19;;;;;;;54.92;28.88;;;;;;;0.57;100.00;101258.50;5012418;28;20061;-78
2024/01/14 07:21:45;;;;;;;57.20;29.60;;;;;;;0.59;100.00;101250.88;5012344;28;20483;-79
2024/01/14 07:24:10;;;;;;;54.60;29.15;;;;;;;0.57;100.00;101261.03;5012415;28;20040;-78
2024/01/14 07:26:35;;;;;;;53.90;28.85;;;;;;;0.48;100.00;101240.84;4995057;28;20038;-77
2024/01/14 07:29:01;;;;;;;56.45;30.67;;;;;;;0.58;100.00;101262.72;5012409;28;20022;-78
2024/01/14 07:31:27;;;;;;;57.25;31.35;;;;;;;0.55;100.00;101257.69;5013331;28;20030;-85
2024/01/14 07:33:53;;;;;;;56.28;29.40;;;;;;;0.57;100.00;101262.75;5017631;28;20504;-79
2024/01/14 07:36:18;;;;;;;63.17;30.67;;;;;;;0.56;100.00;101259.38;5019220;28;20108;-80
2024/01/14 07:38:44;;;;;;;62.00;29.67;;;;;;;0.43;100.00;101239.25;5019127;28;20037;-78
2024/01/14 07:41:13;;;;;;;59.85;29.92;;;;;;;0.43;100.00;101235.00;5019070;28;20414;-78
2024/01/14 07:43:41;;;;;;;58.35;29.63;;;;;;;0.57;100.00;101261.03;5018851;28;20057;-78
2024/01/14 07:46:07;;;;;;;62.58;31.38;;;;;;;0.50;100.00;101253.56;5026745;28;20488;-76
2024/01/14 07:48:34;;;;;;;63.90;31.08;;;;;;;0.49;100.00;101252.72;5039496;28;20025;-75
2024/01/14 07:51:00;;;;;;;62.28;31.30;;;;;;;0.50;100.00;101256.94;5039239;28;20074;-77
2024/01/14 07:53:25;;;;;;;59.75;32.17;;;;;;;0.50;100.00;101262.03;5038897;28;20021;-76
2024/01/14 07:55:51;;;;;;;60.63;30.83;;;;;;;0.46;100.00;101245.13;5037152;28;20034;-75
2024/01/14 07:58:17;;;;;;;58.15;29.60;;;;;;;0.53;100.00;101256.03;5038503;28;20037;-80
2024/01/14 08:00:43;;;;;;;58.10;31.98;;;;;;;0.55;100.00;101254.31;5038573;28;20031;-78
2024/01/14 08:03:08;;;;;;;62.30;29.00;;;;;;;0.36;100.00;101227.50;5038822;28;20100;-79
2024/01/14 08:05:35;;;;;;;62.28;30.63;;;;;;;0.54;100.00;101250.94;5038810;28;20477;-81
2024/01/14 08:08:01;;;;;;;66.20;31.45;;;;;;;0.58;100.00;101264.44;5038558;28;20037;-80
2024/01/14 08:10:27;;;;;;;59.10;31.23;;;;;;;0.52;100.00;101251.84;5036842;28;20060;-79
2024/01/14 08:12:52;;;;;;;60.85;30.77;;;;;;;0.64;100.00;101266.06;5038211;28;20057;-79
2024/01/14 08:15:18;;;;;;;61.03;29.92;;;;;;;0.63;100.00;101265.22;5038765;28;20013;-79
2024/01/14 08:17:43;;;;;;;51.97;28.65;;;;;;;0.70;100.00;101274.44;5038546;28;20457;-77
2024/01/14 08:20:10;;;;;;;59.55;29.40;;;;;;;0.71;100.00;101267.63;5038435;28;20026;-79
2024/01/14 08:22:42;;;;;;;53.63;28.80;;;;;;;0.73;100.00;101259.13;5038269;28;20037;-79
2024/01/14 08:25:07;;;;;;;;;;;;;;;0.79;100.00;101261.59;5038764;28;20025;-79
2024/01/14 08:27:33;;;;;;;51.90;28.33;;;;;;;0.76;100.00;101268.41;5038659;28;19913;-78
2024/01/14 08:29:59;;;;;;;54.90;28.80;;;;;;;0.77;100.00;101260.75;5038623;28;20096;-80
2024/01/14 08:32:24;;;;;;;51.25;28.33;;;;;;;0.80;100.00;101264.97;5038804;28;20025;-77
2024/01/14 08:34:50;;;;;;;51.38;27.65;;;;;;;0.60;100.00;101227.16;5036885;28;20470;-80
2024/01/14 08:37:15;;;;;;;50.38;28.33;;;;;;;0.80;100.00;101250.53;5039060;28;20025;-77
2024/01/14 08:39:40;;;;;;;51.47;27.15;;;;;;;0.68;100.00;101225.31;5020041;28;20087;-79
2024/01/14 08:42:06;;;;;;;52.25;29.60;;;;;;;0.85;100.00;101253.84;5037988;28;20025;-76
2024/01/14 08:44:31;;;;;;;51.47;27.65;;;;;;;0.85;100.00;101247.91;5034755;28;20025;-78
2024/01/14 08:46:57;;;;;;;51.42;28.75;;;;;;;0.85;100.00;101247.91;5035347;28;20462;-78
2024/01/14 08:49:24;;;;;;;56.45;30.05;;;;;;;0.72;100.00;101216.78;5034743;28;20052;-80
2024/01/14 08:51:50;;;;;;;50.38;28.65;;;;;;;0.89;100.00;101234.31;5035006;28;20219;-80
2024/01/14 08:54:15;;;;;;;52.00;27.98;;;;;;;0.90;100.00;101235.16;5034618;28;20071;-81
2024/01/14 08:56:40;;;;;;;51.72;28.08;;;;;;;0.81;100.00;101224.25;5078200;23;20185;-81
2024/01/14 08:59:06;;;;;;;54.75;30.73;;;;;;;0.82;100.00;101209.84;4995570;28;20037;-81
2024/01/14 09:01:31;;;;;;;54.50;28.92;;;;;;;0.91;100.00;101239.38;4995317;28;20023;-79
2024/01/14 09:03:56;;;;;;;58.25;32.30;;;;;;;0.93;100.00;101237.63;4995500;28;20022;-79
2024/01/14 09:06:22;;;;;;;55.22;28.70;;;;;;;0.78;100.00;101210.75;4995344;28;20030;-78
2024/01/14 09:08:47;;;;;;;52.58;28.65;;;;;;;0.88;100.00;101229.22;4995230;28;20041;-79
2024/01/14 09:11:13;;;;;;;55.30;29.95;;;;;;;0.92;100.00;101236.78;4995335;28;20475;-78
2024/01/14 09:13:38;;;;;;;57.38;31.90;;;;;;;0.95;100.00;101230.81;4995410;28;20053;-75
2024/01/14 09:16:06;;;;;;;53.72;30.30;;;;;;;0.52;100.00;101168.81;4995325;28;20056;-80
2024/01/14 09:18:31;;;;;;;59.78;30.73;;;;;;;0.92;100.00;101234.25;4995236;28;20038;-78
2024/01/14 09:20:57;;;;;;;60.60;31.45;;;;;;;0.91;100.00;101239.38;4995375;28;20026;-78
2024/01/14 09:23:22;;;;;;;58.80;30.20;;;;;;;0.77;100.00;101202.28;4994946;28;20045;-78
2024/01/14 09:25:47;;;;;;;58.92;30.92;;;;;;;0.94;100.00;101219.78;4993141;28;20137;-76
2024/01/14 09:28:13;;;;;;;59.63;31.30;;;;;;;0.98;100.00;101212.94;4994919;28;20023;-76
2024/01/14 09:30:38;;;;;;;57.70;31.85;;;;;;;1.00;100.00;101212.06;4994931;28;20114;-77
2024/01/14 09:33:04;;;;;;;58.53;31.65;;;;;;;0.96;100.00;101201.97;4994933;28;20471;-76
2024/01/14 09:35:29;;;;;;;58.00;31.63;;;;;;;1.07;100.00;101216.16;4994923;28;20026;-76
2024/01/14 09:37:54;;;;;;;60.55;33.10;;;;;;;1.10;100.00;101220.38;4995058;28;20041;-76
2024/01/14 09:40:20;;;;;;;59.00;32.15;;;;;;;1.10;100.00;101213.59;4977212;28;20066;-76
2024/01/14 09:42:49;;;;;;;60.30;31.67;;;;;;;1.11;100.00;101217.81;4994709;28;20026;-76
2024/01/14 09:45:17;;;;;;;59.00;30.08;;;;;;;0.99;100.00;101182.44;4994917;28;20061;-78
2024/01/14 09:47:43;;;;;;;60.22;34.90;;;;;;;1.10;100.00;101205.97;4994467;28;20489;-79
2024/01/14 09:50:10;;;;;;;59.45;29.90;;;;;;;0.97;100.00;101186.69;4994594;28;20029;-78
2024/01/14 09:52:39;;;;;;;57.80;30.33;;;;;;;0.96;100.00;101174.00;4994625;28;20109;-77
2024/01/14 09:55:05;;;;;;;60.40;31.48;;;;;;;1.12;100.00;101201.69;4994156;28;20026;-78
2024/01/14 09:57:33;;;;;;;59.60;29.98;;;;;;;1.05;100.00;101176.38;4994059;28;20057;-78
2024/01/14 10:00:04;;;;;;;57.78;31.33;;;;;;;1.10;100.00;101193.25;4993459;28;20386;-77
2024/01/14 10:02:30;;;;;;;60.35;30.92;;;;;;;1.02;100.00;101173.91;4994419;28;20466;-77
2024/01/14 10:04:56;;;;;;;56.63;31.75;;;;;;;1.20;100.00;101195.63;4994133;28;20467;-77
2024/01/14 10:07:22;;;;;;;59.10;30.05;;;;;;;1.20;100.00;101195.63;4994248;28;20113;-78
2024/01/14 10:09:48;;;;;;;56.17;30.17;;;;;;;1.22;100.00;101179.47;4992890;28;20030;-77
2024/01/14 10:12:14;;;;;;;58.92;31.05;;;;;;;1.09;100.00;101145.78;4994227;28;20037;-75
2024/01/14 10:14:39;;;;;;;57.40;30.88;;;;;;;1.05;100.00;101146.69;4994017;28;20367;-78
2024/01/14 10:17:05;;;;;;;59.50;29.48;;;;;;;1.29;100.00;101172.56;4994309;28;20061;-80
2024/01/14 10:19:31;;;;;;;52.47;28.00;;;;;;;1.32;100.00;101167.41;4992507;28;20089;-76
2024/01/14 10:21:57;;;;;;;59.22;31.70;;;;;;;1.35;100.00;101168.16;4994201;28;20046;-78
2024/01/14 10:24:23;;;;;;;53.58;28.92;;;;;;;1.33;100.00;101172.44;4993993;28;20022;-78
2024/01/14 10:26:53;;;;;;;55.22;29.98;;;;;;;1.37;100.00;101153.69;4993522;28;20038;-76
2024/01/14 10:29:19;;;;;;;50.67;26.65;;;;;;;1.37;100.00;101137.59;4993898;28;20030;-80
2024/01/14 10:31:44;;;;;;;55.13;27.92;;;;;;;1.36;100.00;101143.56;4993736;28;20466;-79
2024/01/14 10:34:10;;;;;;;50.40;27.73;;;;;;;1.51;100.00;101150.06;4992597;28;20026;-77
2024/01/14 10:36:36;;;;;;;48.42;27.35;;;;;;;1.53;100.00;101144.06;4993930;28;20116;-81
2024/01/14 10:39:07;;;;;;;49.08;26.85;;;;;;;1.17;100.00;101096.47;4993545;28;20022;-79
2024/01/14 10:41:33;;;;;;;46.50;26.02;;;;;;;1.43;100.00;101140.03;4992400;28;20042;-77
2024/01/14 10:43:58;;;;;;;49.63;28.15;;;;;;;1.38;100.00;101136.75;4993559;28;20049;-80
2024/01/14 10:46:24;;;;;;;50.08;28.85;;;;;;;1.39;100.00;101139.28;4993603;28;20057;-79
2024/01/14 10:48:57;;;;;;;45.63;27.08;;;;;;;1.36;100.00;101135.94;4993713;28;20822;-76
2024/01/14 10:51:25;;;;;;;46.72;26.85;;;;;;;1.38;100.00;101132.50;4992247;28;20042;-75
2024/01/14 10:54:09;;;;;;;49.40;26.73;;;;;;;1.41;100.00;101129.06;4993681;28;20065;-78
2024/01/14 10:56:40;;;;;;;47.42;25.52;;;;;;;1.41;100.00;101126.50;4993158;28;20105;-76
2024/01/14 10:59:08;;;;;;;48.30;25.98;;;;;;;1.35;100.00;101119.81;4993433;28;20110;-81
2024/01/14 11:01:38;;;;;;;47.45;25.35;;;;;;;1.34;100.00;101109.69;4993216;28;20032;-77